createdAt,value
2022-09-04T00:00:58.810Z,0.00
2022-09-04T00:01:58.951Z,0.00
2022-09-04T00:02:59.109Z,0.00
2022-09-04T00:03:59.384Z,0.00
2022-09-04T00:05:00.396Z,0.00
2022-09-04T00:05:59.620Z,0.00
2022-09-04T00:06:59.752Z,0.00
2022-09-04T00:07:59.903Z,0.00
2022-09-04T00:09:00.072Z,0.00
2022-09-04T00:10:00.221Z,0.00
2022-09-04T00:11:01.258Z,0.00
2022-09-04T00:12:00.501Z,0.00
2022-09-04T00:13:00.678Z,0.00
2022-09-04T00:14:01.275Z,0.00
2022-09-04T00:15:01.032Z,0.00
2022-09-04T00:16:01.180Z,0.00
2022-09-04T00:17:02.357Z,0.00
2022-09-04T00:18:01.511Z,0.00
2022-09-04T00:19:01.640Z,0.00
2022-09-04T00:20:01.804Z,0.00
2022-09-04T00:21:01.975Z,0.00
2022-09-04T00:22:02.106Z,0.00
2022-09-04T00:23:02.234Z,0.00
2022-09-04T00:24:02.385Z,0.00
2022-09-04T00:25:02.529Z,0.00
2022-09-04T00:26:02.777Z,0.00
2022-09-04T00:27:02.919Z,0.00
2022-09-04T00:28:03.772Z,0.00
2022-09-04T00:29:03.282Z,0.00
2022-09-04T00:30:04.270Z,0.00
2022-09-04T00:31:03.810Z,0.00
2022-09-04T00:32:03.876Z,0.00
2022-09-04T00:33:04.017Z,0.00
2022-09-04T00:34:04.194Z,0.00
2022-09-04T00:35:05.267Z,0.00
2022-09-04T00:36:04.543Z,0.00
2022-09-04T00:37:04.731Z,0.00
2022-09-04T00:38:04.865Z,0.00
2022-09-04T00:39:05.038Z,0.00
2022-09-04T00:40:05.221Z,0.00
2022-09-04T00:41:05.376Z,0.00
2022-09-04T00:42:05.557Z,0.00
2022-09-04T00:43:05.726Z,0.00
2022-09-04T00:44:06.288Z,0.00
2022-09-04T00:45:06.778Z,0.00
2022-09-04T00:46:06.377Z,0.00
2022-09-04T00:47:06.480Z,0.00
2022-09-04T00:48:06.653Z,0.00
2022-09-04T00:49:06.874Z,0.00
2022-09-04T00:50:07.040Z,0.00
2022-09-04T00:51:07.185Z,0.00
2022-09-04T00:52:08.275Z,0.00
2022-09-04T00:53:07.554Z,0.00
2022-09-04T00:54:07.709Z,0.00
2022-09-04T00:55:07.872Z,0.00
2022-09-04T00:56:08.022Z,0.00
2022-09-04T00:57:08.188Z,0.00
2022-09-04T00:58:08.368Z,0.00
2022-09-04T00:59:09.286Z,0.00
2022-09-04T01:00:08.692Z,0.00
2022-09-04T01:01:08.938Z,0.00
2022-09-04T01:02:09.976Z,0.00
2022-09-04T01:03:09.264Z,0.00
2022-09-04T01:04:10.285Z,0.00
2022-09-04T01:05:09.675Z,0.00
2022-09-04T01:06:10.801Z,0.00
2022-09-04T01:07:10.785Z,0.00
2022-09-04T01:08:31.680Z,0.00
2022-09-04T01:09:10.292Z,0.00
2022-09-04T01:10:11.289Z,0.00
2022-09-04T01:11:11.284Z,0.00
2022-09-04T01:12:10.933Z,0.00
2022-09-04T01:13:11.784Z,0.00
2022-09-04T01:14:11.305Z,0.00
2022-09-04T01:15:11.467Z,0.00
2022-09-04T01:16:11.703Z,0.00
2022-09-04T01:17:11.881Z,0.00
2022-09-04T01:18:12.783Z,0.00
2022-09-04T01:19:12.270Z,0.00
2022-09-04T01:20:12.423Z,0.00
2022-09-04T01:21:12.554Z,0.00
2022-09-04T01:22:12.715Z,0.00
2022-09-04T01:23:12.861Z,0.00
2022-09-04T01:24:13.020Z,0.00
2022-09-04T01:25:13.207Z,0.00
2022-09-04T01:26:13.355Z,0.00
2022-09-04T01:27:14.287Z,0.00
2022-09-04T01:28:14.290Z,0.00
2022-09-04T01:29:14.286Z,0.00
2022-09-04T01:30:13.933Z,0.00
2022-09-04T01:31:14.123Z,0.00
2022-09-04T01:32:14.789Z,0.00
2022-09-04T01:33:14.455Z,0.00
2022-09-04T01:34:14.603Z,0.00
2022-09-04T01:35:14.777Z,0.00
2022-09-04T01:36:14.909Z,0.00
2022-09-04T01:37:15.045Z,0.00
2022-09-04T01:38:15.190Z,0.00
2022-09-04T01:39:15.337Z,0.00
2022-09-04T01:40:16.290Z,0.00
2022-09-04T01:41:15.654Z,0.00
2022-09-04T01:42:15.802Z,0.00
2022-09-04T01:43:16.784Z,0.00
2022-09-04T01:44:17.123Z,0.00
2022-09-04T01:45:16.328Z,0.00
2022-09-04T01:46:17.303Z,0.00
2022-09-04T01:47:16.673Z,0.00
2022-09-04T01:48:16.774Z,0.00
2022-09-04T01:49:16.898Z,0.00
2022-09-04T01:50:17.039Z,0.00
2022-09-04T01:51:17.220Z,0.00
2022-09-04T01:52:17.340Z,0.00
2022-09-04T01:53:17.487Z,0.00
2022-09-04T01:54:18.295Z,0.00
2022-09-04T01:55:18.796Z,0.00
2022-09-04T01:56:18.190Z,0.00
2022-09-04T01:57:18.342Z,0.00
2022-09-04T01:58:18.578Z,0.00
2022-09-04T01:59:18.677Z,0.00
2022-09-04T02:00:18.851Z,0.00
2022-09-04T02:01:21.247Z,0.00
2022-09-04T02:02:19.258Z,0.00
2022-09-04T02:03:19.330Z,0.00
2022-09-04T02:04:19.487Z,0.00
2022-09-04T02:05:19.643Z,0.00
2022-09-04T02:06:20.803Z,0.00
2022-09-04T02:07:20.057Z,0.00
2022-09-04T02:08:20.192Z,0.00
2022-09-04T02:09:20.335Z,0.00
2022-09-04T02:10:20.507Z,0.00
2022-09-04T02:11:20.659Z,0.00
2022-09-04T02:12:22.312Z,0.00
2022-09-04T02:13:21.068Z,0.00
2022-09-04T02:14:21.218Z,0.00
2022-09-04T02:15:21.368Z,0.00
2022-09-04T02:16:21.564Z,0.00
2022-09-04T02:17:21.817Z,0.00
2022-09-04T02:18:21.856Z,0.00
2022-09-04T02:19:21.981Z,0.00
2022-09-04T02:20:22.318Z,0.00
2022-09-04T02:21:23.309Z,0.00
2022-09-04T02:22:22.567Z,0.00
2022-09-04T02:23:22.723Z,0.00
2022-09-04T02:24:22.905Z,0.00
2022-09-04T02:25:23.084Z,0.00
2022-09-04T02:26:23.806Z,0.00
2022-09-04T02:27:23.450Z,0.00
2022-09-04T02:28:23.625Z,0.00
2022-09-04T02:29:23.795Z,0.00
2022-09-04T02:30:23.970Z,0.00
2022-09-04T02:31:24.226Z,0.00
2022-09-04T02:32:24.289Z,0.00
2022-09-04T02:33:24.441Z,0.00
2022-09-04T02:34:24.608Z,0.00
2022-09-04T02:35:24.767Z,0.00
2022-09-04T02:36:25.321Z,0.00
2022-09-04T02:37:25.084Z,0.00
2022-09-04T02:38:25.961Z,0.00
2022-09-04T02:39:25.462Z,0.00
2022-09-04T02:40:25.629Z,0.00
2022-09-04T02:41:25.817Z,0.00
2022-09-04T02:42:25.974Z,0.00
2022-09-04T02:43:26.139Z,0.00
2022-09-04T02:44:26.815Z,0.00
2022-09-04T02:45:27.315Z,0.00
2022-09-04T02:46:26.627Z,0.00
2022-09-04T02:47:26.827Z,0.00
2022-09-04T02:48:27.814Z,0.00
2022-09-04T02:49:27.228Z,0.00
2022-09-04T02:50:27.420Z,0.00
2022-09-04T02:51:27.607Z,0.00
2022-09-04T02:52:27.860Z,0.00
2022-09-04T02:53:28.812Z,0.00
2022-09-04T02:54:28.068Z,0.00
2022-09-04T02:55:28.284Z,0.00
2022-09-04T02:56:28.472Z,0.00
2022-09-04T02:57:29.318Z,0.00
2022-09-04T02:58:28.866Z,0.00
2022-09-04T02:59:29.824Z,0.00
2022-09-04T03:00:29.864Z,0.00
2022-09-04T03:01:29.450Z,0.00
2022-09-04T03:02:29.658Z,0.00
2022-09-04T03:03:29.832Z,0.00
2022-09-04T03:04:29.862Z,0.00
2022-09-04T03:05:30.333Z,0.00
2022-09-04T03:06:30.213Z,0.00
2022-09-04T03:07:30.365Z,0.00
2022-09-04T03:08:30.508Z,0.00
2022-09-04T03:09:31.837Z,0.00
2022-09-04T03:10:30.945Z,0.00
2022-09-04T03:11:31.110Z,0.00
2022-09-04T03:12:31.251Z,0.00
2022-09-04T03:13:31.382Z,0.00
2022-09-04T03:14:31.546Z,0.00
2022-09-04T03:15:31.681Z,0.00
2022-09-04T03:16:31.854Z,0.00
2022-09-04T03:17:32.822Z,0.00
2022-09-04T03:18:32.823Z,0.00
2022-09-04T03:19:32.832Z,0.00
2022-09-04T03:20:32.514Z,0.00
2022-09-04T03:21:33.321Z,0.00
2022-09-04T03:22:32.810Z,0.00
2022-09-04T03:23:32.964Z,0.00
2022-09-04T03:24:33.137Z,0.00
2022-09-04T03:25:33.824Z,0.00
2022-09-04T03:26:33.459Z,0.00
2022-09-04T03:27:33.625Z,0.00
2022-09-04T03:28:33.770Z,0.00
2022-09-04T03:29:33.933Z,0.00
2022-09-04T03:30:34.081Z,0.00
2022-09-04T03:31:34.355Z,0.00
2022-09-04T03:32:34.412Z,0.00
2022-09-04T03:33:34.618Z,0.00
2022-09-04T03:34:34.788Z,0.00
2022-09-04T03:35:35.834Z,0.00
2022-09-04T03:36:35.099Z,0.00
2022-09-04T03:37:35.343Z,0.00
2022-09-04T03:38:35.375Z,0.00
2022-09-04T03:39:35.533Z,0.00
2022-09-04T03:40:35.707Z,0.00
2022-09-04T03:41:35.854Z,0.00
2022-09-04T03:42:36.352Z,0.00
2022-09-04T03:43:36.243Z,0.00
2022-09-04T03:44:37.330Z,0.00
2022-09-04T03:45:36.588Z,0.00
2022-09-04T03:46:36.914Z,0.00
2022-09-04T03:47:37.834Z,0.00
2022-09-04T03:48:37.062Z,0.00
2022-09-04T03:49:37.201Z,0.00
2022-09-04T03:50:37.318Z,0.00
2022-09-04T03:51:37.514Z,0.00
2022-09-04T03:52:38.333Z,0.00
2022-09-04T03:53:37.806Z,0.00
2022-09-04T03:54:37.942Z,0.00
2022-09-04T03:55:38.070Z,0.00
2022-09-04T03:56:38.231Z,0.00
2022-09-04T03:57:38.402Z,0.00
2022-09-04T03:58:39.335Z,0.00
2022-09-04T03:59:38.718Z,0.00
2022-09-04T04:00:38.913Z,0.00
2022-09-04T04:01:39.080Z,0.00
2022-09-04T04:02:39.322Z,0.00
2022-09-04T04:03:39.408Z,0.00
2022-09-04T04:04:39.576Z,0.00
2022-09-04T04:05:39.723Z,0.00
2022-09-04T04:06:40.839Z,0.00
2022-09-04T04:07:40.114Z,0.00
2022-09-04T04:08:40.288Z,0.00
2022-09-04T04:09:40.469Z,0.00
2022-09-04T04:10:40.628Z,0.00
2022-09-04T04:11:43.400Z,0.00
2022-09-04T04:12:41.988Z,0.00
2022-09-04T04:13:41.841Z,0.00
2022-09-04T04:14:41.253Z,0.00
2022-09-04T04:15:41.417Z,0.00
2022-09-04T04:16:41.574Z,0.00
2022-09-04T04:17:41.696Z,0.00
2022-09-04T04:18:41.866Z,0.00
2022-09-04T04:19:42.040Z,0.00
2022-09-04T04:20:42.230Z,0.00
2022-09-04T04:21:42.410Z,0.00
2022-09-04T04:22:42.579Z,0.00
2022-09-04T04:23:43.343Z,0.00
2022-09-04T04:24:43.362Z,0.00
2022-09-04T04:25:42.980Z,0.00
2022-09-04T04:26:43.187Z,0.00
2022-09-04T04:27:43.852Z,0.00
2022-09-04T04:28:43.561Z,0.00
2022-09-04T04:29:43.856Z,0.00
2022-09-04T04:30:43.879Z,0.00
2022-09-04T04:31:44.052Z,0.00
2022-09-04T04:32:44.846Z,0.00
2022-09-04T04:33:44.365Z,0.00
2022-09-04T04:34:44.861Z,0.00
2022-09-04T04:35:44.753Z,0.00
2022-09-04T04:36:44.886Z,0.00
2022-09-04T04:37:45.058Z,0.00
2022-09-04T04:38:45.846Z,0.00
2022-09-04T04:39:45.427Z,0.00
2022-09-04T04:40:45.485Z,0.00
2022-09-04T04:41:45.669Z,0.00
2022-09-04T04:42:45.829Z,0.00
2022-09-04T04:43:45.982Z,0.00
2022-09-04T04:44:46.201Z,0.00
2022-09-04T04:45:46.370Z,5.62
2022-09-04T04:46:46.539Z,5.62
2022-09-04T04:47:46.713Z,5.62
2022-09-04T04:48:46.883Z,5.62
2022-09-04T04:49:47.093Z,5.62
2022-09-04T04:50:47.284Z,5.62
2022-09-04T04:51:47.470Z,5.62
2022-09-04T04:52:47.641Z,5.62
2022-09-04T04:53:47.803Z,5.62
2022-09-04T04:54:47.944Z,11.25
2022-09-04T04:55:48.123Z,11.25
2022-09-04T04:56:48.300Z,11.25
2022-09-04T04:57:48.472Z,11.25
2022-09-04T04:58:48.662Z,11.25
2022-09-04T04:59:48.828Z,11.25
2022-09-04T05:00:49.028Z,11.25
2022-09-04T05:01:49.247Z,16.88
2022-09-04T05:02:49.437Z,16.88
2022-09-04T05:03:49.642Z,16.88
2022-09-04T05:04:49.813Z,16.88
2022-09-04T05:05:49.998Z,16.88
2022-09-04T05:06:50.204Z,16.88
2022-09-04T05:07:50.375Z,22.50
2022-09-04T05:08:50.515Z,22.50
2022-09-04T05:09:50.647Z,22.50
2022-09-04T05:10:50.808Z,22.50
2022-09-04T05:11:50.967Z,22.50
2022-09-04T05:12:51.371Z,22.50
2022-09-04T05:13:51.686Z,22.50
2022-09-04T05:14:51.502Z,28.12
2022-09-04T05:16:08.349Z,28.12
2022-09-04T05:16:55.975Z,28.12
2022-09-04T05:17:52.985Z,28.12
2022-09-04T05:18:52.216Z,33.75
2022-09-04T05:19:52.521Z,33.75
2022-09-04T05:20:52.585Z,33.75
2022-09-04T05:21:52.701Z,33.75
2022-09-04T05:22:52.942Z,33.75
2022-09-04T05:23:53.100Z,39.38
2022-09-04T05:24:55.738Z,39.38
2022-09-04T05:25:53.429Z,39.38
2022-09-04T05:26:54.360Z,39.38
2022-09-04T05:27:54.363Z,39.38
2022-09-04T05:28:53.855Z,45.00
2022-09-04T05:29:53.999Z,45.00
2022-09-04T05:30:54.200Z,45.00
2022-09-04T05:31:54.353Z,45.00
2022-09-04T05:32:55.361Z,45.00
2022-09-04T05:33:54.719Z,45.00
2022-09-04T05:34:54.959Z,50.62
2022-09-04T05:35:55.098Z,50.62
2022-09-04T05:36:55.230Z,50.62
2022-09-04T05:37:55.881Z,50.62
2022-09-04T05:38:55.624Z,56.25
2022-09-04T05:39:55.804Z,56.25
2022-09-04T05:40:56.865Z,56.25
2022-09-04T05:41:56.126Z,61.88
2022-09-04T05:42:56.249Z,61.88
2022-09-04T05:43:56.392Z,61.88
2022-09-04T05:44:56.519Z,67.50
2022-09-04T05:45:56.724Z,67.50
2022-09-04T05:46:56.909Z,67.50
2022-09-04T05:47:57.058Z,67.50
2022-09-04T05:48:57.185Z,73.12
2022-09-04T05:49:57.352Z,73.12
2022-09-04T05:50:57.507Z,73.12
2022-09-04T05:51:57.651Z,78.75
2022-09-04T05:52:57.822Z,78.75
2022-09-04T05:54:00.871Z,78.75
2022-09-04T05:54:59.117Z,78.75
2022-09-04T05:55:58.245Z,84.38
2022-09-04T05:56:58.397Z,84.38
2022-09-04T05:57:58.592Z,84.38
2022-09-04T05:58:58.738Z,90.00
2022-09-04T05:59:58.891Z,90.00
2022-09-04T06:00:59.871Z,90.00
2022-09-04T06:01:59.903Z,95.62
2022-09-04T06:02:59.899Z,95.62
2022-09-04T06:03:59.556Z,95.62
2022-09-04T06:04:59.705Z,95.62
2022-09-04T06:05:59.860Z,101.25
2022-09-04T06:07:00.010Z,106.88
2022-09-04T06:08:00.382Z,112.50
2022-09-04T06:09:01.302Z,112.50
2022-09-04T06:10:00.428Z,112.50
2022-09-04T06:11:00.569Z,118.12
2022-09-04T06:12:01.376Z,118.12
2022-09-04T06:13:00.907Z,118.12
2022-09-04T06:14:01.066Z,118.12
2022-09-04T06:15:01.209Z,118.12
2022-09-04T06:16:01.452Z,123.75
2022-09-04T06:17:01.498Z,123.75
2022-09-04T06:18:02.379Z,123.75
2022-09-04T06:19:01.851Z,129.38
2022-09-04T06:20:01.988Z,129.38
2022-09-04T06:21:02.182Z,129.38
2022-09-04T06:22:02.313Z,135.00
2022-09-04T06:23:03.191Z,135.00
2022-09-04T06:24:04.390Z,135.00
2022-09-04T06:25:03.379Z,140.62
2022-09-04T06:26:03.903Z,146.25
2022-09-04T06:27:03.284Z,146.25
2022-09-04T06:28:04.385Z,146.25
2022-09-04T06:29:05.861Z,157.50
2022-09-04T06:30:04.741Z,185.62
2022-09-04T06:31:04.061Z,225.00
2022-09-04T06:32:04.151Z,495.00
2022-09-04T06:33:04.298Z,433.12
2022-09-04T06:34:04.448Z,270.00
2022-09-04T06:35:04.599Z,331.88
2022-09-04T06:36:04.857Z,540.00
2022-09-04T06:37:05.415Z,860.62
2022-09-04T06:38:05.123Z,1057.50
2022-09-04T06:39:05.356Z,1231.88
2022-09-04T06:40:05.637Z,596.25
2022-09-04T06:41:05.784Z,331.88
2022-09-04T06:42:05.928Z,320.62
2022-09-04T06:43:06.077Z,545.62
2022-09-04T06:44:06.216Z,753.75
2022-09-04T06:45:06.887Z,483.75
2022-09-04T06:46:06.521Z,281.25
2022-09-04T06:47:07.388Z,275.62
2022-09-04T06:48:06.912Z,286.88
2022-09-04T06:49:07.072Z,540.00
2022-09-04T06:50:07.209Z,781.88
2022-09-04T06:51:07.358Z,450.00
2022-09-04T06:52:07.494Z,208.12
2022-09-04T06:53:07.718Z,185.62
2022-09-04T06:54:08.392Z,191.25
2022-09-04T06:55:08.036Z,196.88
2022-09-04T06:56:08.221Z,810.00
2022-09-04T06:57:08.372Z,1597.50
2022-09-04T06:58:08.517Z,1040.62
2022-09-04T06:59:08.710Z,1096.88
2022-09-04T07:00:08.875Z,1721.25
2022-09-04T07:01:09.079Z,1563.75
2022-09-04T07:02:09.227Z,916.88
2022-09-04T07:03:09.309Z,568.12
2022-09-04T07:04:09.479Z,635.62
2022-09-04T07:05:09.686Z,1051.88
2022-09-04T07:06:09.856Z,1006.88
2022-09-04T07:07:10.016Z,691.88
2022-09-04T07:08:10.167Z,331.88
2022-09-04T07:09:10.345Z,348.75
2022-09-04T07:10:10.739Z,894.38
2022-09-04T07:11:10.696Z,2317.50
2022-09-04T07:12:10.916Z,3009.38
2022-09-04T07:13:11.091Z,3105.00
2022-09-04T07:14:11.270Z,2981.25
2022-09-04T07:15:11.430Z,2390.62
2022-09-04T07:16:11.634Z,1383.75
2022-09-04T07:17:11.794Z,675.00
2022-09-04T07:18:11.950Z,815.62
2022-09-04T07:19:12.899Z,613.12
2022-09-04T07:20:12.284Z,596.25
2022-09-04T07:21:12.521Z,1378.12
2022-09-04T07:22:13.408Z,1732.50
2022-09-04T07:23:12.903Z,1456.88
2022-09-04T07:24:13.044Z,1350.00
2022-09-04T07:25:13.163Z,1372.50
2022-09-04T07:26:13.320Z,697.50
2022-09-04T07:27:13.466Z,421.88
2022-09-04T07:28:13.637Z,433.12
2022-09-04T07:29:13.766Z,376.88
2022-09-04T07:30:13.928Z,742.50
2022-09-04T07:31:14.974Z,731.25
2022-09-04T07:32:14.239Z,601.88
2022-09-04T07:33:14.370Z,337.50
2022-09-04T07:34:14.529Z,298.12
2022-09-04T07:35:14.665Z,270.00
2022-09-04T07:36:15.411Z,275.62
2022-09-04T07:37:15.028Z,275.62
2022-09-04T07:38:15.183Z,270.00
2022-09-04T07:39:15.350Z,270.00
2022-09-04T07:40:15.466Z,275.62
2022-09-04T07:41:17.545Z,281.25
2022-09-04T07:42:15.778Z,281.25
2022-09-04T07:43:15.915Z,275.62
2022-09-04T07:44:16.063Z,292.50
2022-09-04T07:45:16.226Z,309.38
2022-09-04T07:46:16.442Z,275.62
2022-09-04T07:47:18.412Z,281.25
2022-09-04T07:48:16.925Z,286.88
2022-09-04T07:49:17.917Z,309.38
2022-09-04T07:50:17.129Z,331.88
2022-09-04T07:51:17.249Z,303.75
2022-09-04T07:52:17.916Z,309.38
2022-09-04T07:53:17.593Z,376.88
2022-09-04T07:54:22.643Z,343.12
2022-09-04T07:55:18.861Z,286.88
2022-09-04T07:56:18.915Z,286.88
2022-09-04T07:57:18.923Z,292.50
2022-09-04T07:58:18.964Z,303.75
2022-09-04T07:59:18.736Z,315.00
2022-09-04T08:00:18.962Z,315.00
2022-09-04T08:01:19.068Z,365.62
2022-09-04T08:02:19.250Z,360.00
2022-09-04T08:03:19.921Z,337.50
2022-09-04T08:04:19.566Z,365.62
2022-09-04T08:05:19.697Z,680.62
2022-09-04T08:06:19.927Z,1265.62
2022-09-04T08:07:20.081Z,2503.12
2022-09-04T08:08:20.926Z,3054.38
2022-09-04T08:09:20.437Z,2587.50
2022-09-04T08:10:20.939Z,3110.62
2022-09-04T08:11:20.816Z,2542.50
2022-09-04T08:12:20.959Z,1468.12
2022-09-04T08:13:21.104Z,1164.38
2022-09-04T08:14:22.440Z,1108.12
2022-09-04T08:15:21.438Z,916.88
2022-09-04T08:16:21.627Z,832.50
2022-09-04T08:17:21.801Z,354.38
2022-09-04T08:18:21.931Z,388.12
2022-09-04T08:19:22.099Z,326.25
2022-09-04T08:20:22.927Z,309.38
2022-09-04T08:21:22.411Z,303.75
2022-09-04T08:22:27.655Z,270.00
2022-09-04T08:23:24.801Z,270.00
2022-09-04T08:24:23.047Z,270.00
2022-09-04T08:25:23.179Z,264.38
2022-09-04T08:26:23.317Z,264.38
2022-09-04T08:27:24.426Z,270.00
2022-09-04T08:28:23.676Z,281.25
2022-09-04T08:29:23.844Z,315.00
2022-09-04T08:30:24.003Z,343.12
2022-09-04T08:31:24.219Z,489.38
2022-09-04T08:32:24.310Z,410.62
2022-09-04T08:33:24.463Z,315.00
2022-09-04T08:34:24.633Z,365.62
2022-09-04T08:35:24.779Z,438.75
2022-09-04T08:36:24.919Z,405.00
2022-09-04T08:37:26.052Z,843.75
2022-09-04T08:38:25.382Z,1136.25
2022-09-04T08:39:26.002Z,618.75
2022-09-04T08:40:25.679Z,371.25
2022-09-04T08:41:25.826Z,343.12
2022-09-04T08:42:26.983Z,320.62
2022-09-04T08:43:26.137Z,461.25
2022-09-04T08:44:26.449Z,810.00
2022-09-04T08:45:26.487Z,871.88
2022-09-04T08:46:28.909Z,759.38
2022-09-04T08:47:28.307Z,354.38
2022-09-04T08:48:26.979Z,253.12
2022-09-04T08:49:27.935Z,253.12
2022-09-04T08:50:27.938Z,264.38
2022-09-04T08:51:28.462Z,253.12
2022-09-04T08:52:27.618Z,258.75
2022-09-04T08:53:27.803Z,258.75
2022-09-04T08:54:28.440Z,253.12
2022-09-04T08:55:28.081Z,253.12
2022-09-04T08:56:28.237Z,258.75
2022-09-04T08:57:28.411Z,253.12
2022-09-04T08:58:28.527Z,253.12
2022-09-04T08:59:29.438Z,253.12
2022-09-04T09:00:28.812Z,258.75
2022-09-04T09:01:28.983Z,270.00
2022-09-04T09:02:29.225Z,264.38
2022-09-04T09:03:29.389Z,320.62
2022-09-04T09:04:29.952Z,354.38
2022-09-04T09:05:29.705Z,303.75
2022-09-04T09:06:29.851Z,388.12
2022-09-04T09:07:30.001Z,354.38
2022-09-04T09:08:31.783Z,230.62
2022-09-04T09:09:31.945Z,230.62
2022-09-04T09:10:30.547Z,168.75
2022-09-04T09:11:30.705Z,168.75
2022-09-04T09:12:40.917Z,174.38
2022-09-04T09:13:31.954Z,219.38
2022-09-04T09:14:31.945Z,320.62
2022-09-04T09:15:31.414Z,264.38
2022-09-04T09:16:32.603Z,270.00
2022-09-04T09:17:34.862Z,275.62
2022-09-04T09:18:31.895Z,196.88
2022-09-04T09:19:32.034Z,264.38
2022-09-04T09:20:32.956Z,281.25
2022-09-04T09:21:32.329Z,275.62
2022-09-04T09:22:32.477Z,275.62
2022-09-04T09:23:33.450Z,213.75
2022-09-04T09:24:32.802Z,270.00
2022-09-04T09:25:33.019Z,264.38
2022-09-04T09:26:33.172Z,253.12
2022-09-04T09:27:33.953Z,270.00
2022-09-04T09:28:33.451Z,286.88
2022-09-04T09:29:33.609Z,180.00
2022-09-04T09:30:33.807Z,163.12
2022-09-04T09:31:33.990Z,157.50
2022-09-04T09:32:34.127Z,151.88
2022-09-04T09:33:34.961Z,140.62
2022-09-04T09:34:34.487Z,140.62
2022-09-04T09:35:35.458Z,135.00
2022-09-04T09:36:34.831Z,140.62
2022-09-04T09:37:34.974Z,151.88
2022-09-04T09:38:35.957Z,528.75
2022-09-04T09:39:35.391Z,489.38
2022-09-04T09:40:36.488Z,416.25
2022-09-04T09:41:35.595Z,466.88
2022-09-04T09:42:36.461Z,540.00
2022-09-04T09:43:35.838Z,573.75
2022-09-04T09:44:36.000Z,568.12
2022-09-04T09:45:36.554Z,562.50
2022-09-04T09:46:36.959Z,556.88
2022-09-04T09:47:36.430Z,506.25
2022-09-04T09:48:36.570Z,410.62
2022-09-04T09:49:36.685Z,298.12
2022-09-04T09:50:36.837Z,151.88
2022-09-04T09:51:37.464Z,146.25
2022-09-04T09:52:37.176Z,140.62
2022-09-04T09:53:37.411Z,135.00
2022-09-04T09:54:38.462Z,135.00
2022-09-04T09:55:37.719Z,168.75
2022-09-04T09:56:37.837Z,225.00
2022-09-04T09:57:38.972Z,180.00
2022-09-04T09:58:38.318Z,129.38
2022-09-04T09:59:39.466Z,118.12
2022-09-04T10:00:38.698Z,112.50
2022-09-04T10:01:38.849Z,106.88
2022-09-04T10:02:39.515Z,106.88
2022-09-04T10:03:39.212Z,112.50
2022-09-04T10:04:39.335Z,135.00
2022-09-04T10:05:40.472Z,123.75
2022-09-04T10:06:39.803Z,123.75
2022-09-04T10:07:40.478Z,129.38
2022-09-04T10:08:40.258Z,129.38
2022-09-04T10:09:40.493Z,123.75
2022-09-04T10:10:41.470Z,123.75
2022-09-04T10:11:41.471Z,208.12
2022-09-04T10:12:40.989Z,118.12
2022-09-04T10:13:41.136Z,168.75
2022-09-04T10:14:41.302Z,106.88
2022-09-04T10:15:41.448Z,106.88
2022-09-04T10:16:41.629Z,118.12
2022-09-04T10:17:41.794Z,112.50
2022-09-04T10:18:41.986Z,118.12
2022-09-04T10:19:42.980Z,118.12
2022-09-04T10:20:42.242Z,118.12
2022-09-04T10:21:42.388Z,118.12
2022-09-04T10:22:42.572Z,123.75
2022-09-04T10:23:42.738Z,118.12
2022-09-04T10:24:42.909Z,118.12
2022-09-04T10:25:43.488Z,118.12
2022-09-04T10:26:43.265Z,112.50
2022-09-04T10:27:44.141Z,112.50
2022-09-04T10:28:44.589Z,112.50
2022-09-04T10:29:43.721Z,106.88
2022-09-04T10:30:43.945Z,106.88
2022-09-04T10:31:44.044Z,106.88
2022-09-04T10:32:44.196Z,106.88
2022-09-04T10:33:44.355Z,106.88
2022-09-04T10:34:44.515Z,106.88
2022-09-04T10:35:44.640Z,112.50
2022-09-04T10:36:44.996Z,106.88
2022-09-04T10:37:45.004Z,106.88
2022-09-04T10:38:45.983Z,112.50
2022-09-04T10:39:45.378Z,112.50
2022-09-04T10:40:50.648Z,163.12
2022-09-04T10:41:47.669Z,247.50
2022-09-04T10:42:45.905Z,118.12
2022-09-04T10:43:46.063Z,264.38
2022-09-04T10:44:46.244Z,219.38
2022-09-04T10:45:46.471Z,129.38
2022-09-04T10:46:46.590Z,106.88
2022-09-04T10:47:46.788Z,225.00
2022-09-04T10:48:46.980Z,236.25
2022-09-04T10:49:47.988Z,253.12
2022-09-04T10:50:47.394Z,253.12
2022-09-04T10:51:47.557Z,241.88
2022-09-04T10:52:47.734Z,225.00
2022-09-04T10:53:47.923Z,230.62
2022-09-04T10:54:48.107Z,236.25
2022-09-04T10:55:48.279Z,236.25
2022-09-04T10:56:48.991Z,230.62
2022-09-04T10:57:48.647Z,225.00
2022-09-04T10:58:48.811Z,230.62
2022-09-04T10:59:48.929Z,241.88
2022-09-04T11:00:49.130Z,241.88
2022-09-04T11:01:49.476Z,241.88
2022-09-04T11:02:49.534Z,241.88
2022-09-04T11:03:50.494Z,241.88
2022-09-04T11:04:49.864Z,241.88
2022-09-04T11:05:50.018Z,236.25
2022-09-04T11:06:50.248Z,236.25
2022-09-04T11:07:50.407Z,241.88
2022-09-04T11:08:50.697Z,236.25
2022-09-04T11:09:50.770Z,236.25
2022-09-04T11:10:50.913Z,241.88
2022-09-04T11:11:51.066Z,241.88
2022-09-04T11:12:51.201Z,236.25
2022-09-04T11:13:51.750Z,236.25
2022-09-04T11:14:53.502Z,236.25
2022-09-04T11:15:51.734Z,236.25
2022-09-04T11:16:51.937Z,236.25
2022-09-04T11:17:53.015Z,236.25
2022-09-04T11:18:52.174Z,230.62
2022-09-04T11:19:52.343Z,236.25
2022-09-04T11:20:52.486Z,129.38
2022-09-04T11:21:52.637Z,225.00
2022-09-04T11:22:53.498Z,196.88
2022-09-04T11:23:53.498Z,123.75
2022-09-04T11:24:53.521Z,118.12
2022-09-04T11:25:53.513Z,118.12
2022-09-04T11:26:53.557Z,112.50
2022-09-04T11:27:53.729Z,112.50
2022-09-04T11:28:53.873Z,106.88
2022-09-04T11:29:54.032Z,106.88
2022-09-04T11:30:54.184Z,106.88
2022-09-04T11:31:54.397Z,101.25
2022-09-04T11:32:54.523Z,101.25
2022-09-04T11:33:55.504Z,95.62
2022-09-04T11:34:54.903Z,101.25
2022-09-04T11:35:55.519Z,106.88
2022-09-04T11:36:56.005Z,106.88
2022-09-04T11:37:57.849Z,106.88
2022-09-04T11:38:57.504Z,101.25
2022-09-04T11:39:55.913Z,101.25
2022-09-04T11:40:56.122Z,101.25
2022-09-04T11:41:56.295Z,101.25
2022-09-04T11:42:56.468Z,101.25
2022-09-04T11:43:56.626Z,101.25
2022-09-04T11:44:57.510Z,101.25
2022-09-04T11:45:57.106Z,101.25
2022-09-04T11:46:57.141Z,95.62
2022-09-04T11:47:57.289Z,95.62
2022-09-04T11:48:57.436Z,95.62
2022-09-04T11:49:57.577Z,90.00
2022-09-04T11:50:57.778Z,90.00
2022-09-04T11:51:57.935Z,90.00
2022-09-04T11:52:58.072Z,95.62
2022-09-04T11:53:59.036Z,95.62
2022-09-04T11:54:58.417Z,101.25
2022-09-04T11:55:58.575Z,101.25
2022-09-04T11:56:58.739Z,101.25
2022-09-04T11:57:58.864Z,101.25
2022-09-04T11:58:59.011Z,95.62
2022-09-04T11:59:59.131Z,101.25
2022-09-04T12:00:59.274Z,95.62
2022-09-04T12:01:59.518Z,112.50
2022-09-04T12:02:59.659Z,180.00
2022-09-04T12:03:59.896Z,118.12
2022-09-04T12:05:00.513Z,101.25
2022-09-04T12:06:00.111Z,101.25
2022-09-04T12:07:00.232Z,129.38
2022-09-04T12:08:01.018Z,168.75
2022-09-04T12:09:01.031Z,129.38
2022-09-04T12:10:00.799Z,151.88
2022-09-04T12:11:00.942Z,253.12
2022-09-04T12:12:02.020Z,129.38
2022-09-04T12:13:15.172Z,135.00
2022-09-04T12:14:02.360Z,123.75
2022-09-04T12:15:07.717Z,140.62
2022-09-04T12:16:02.836Z,180.00
2022-09-04T12:17:01.999Z,286.88
2022-09-04T12:18:02.138Z,292.50
2022-09-04T12:19:03.032Z,292.50
2022-09-04T12:20:06.093Z,174.38
2022-09-04T12:21:04.633Z,247.50
2022-09-04T12:22:02.852Z,129.38
2022-09-04T12:23:03.025Z,135.00
2022-09-04T12:24:03.180Z,135.00
2022-09-04T12:25:03.347Z,140.62
2022-09-04T12:26:03.504Z,275.62
2022-09-04T12:27:03.674Z,112.50
2022-09-04T12:28:04.525Z,112.50
2022-09-04T12:29:04.042Z,106.88
2022-09-04T12:30:04.539Z,106.88
2022-09-04T12:31:05.030Z,106.88
2022-09-04T12:32:04.753Z,112.50
2022-09-04T12:33:07.591Z,112.50
2022-09-04T12:34:05.013Z,168.75
2022-09-04T12:35:05.187Z,129.38
2022-09-04T12:36:05.337Z,123.75
2022-09-04T12:37:05.490Z,123.75
2022-09-04T12:38:05.672Z,123.75
2022-09-04T12:39:05.851Z,123.75
2022-09-04T12:40:06.594Z,123.75
2022-09-04T12:41:06.147Z,118.12
2022-09-04T12:42:06.299Z,118.12
2022-09-04T12:43:06.465Z,118.12
2022-09-04T12:44:06.630Z,118.12
2022-09-04T12:45:06.758Z,118.12
2022-09-04T12:46:06.907Z,118.12
2022-09-04T12:47:07.092Z,118.12
2022-09-04T12:48:07.220Z,118.12
2022-09-04T12:49:07.369Z,118.12
2022-09-04T12:50:07.545Z,118.12
2022-09-04T12:51:08.534Z,118.12